Terminal Aerodrome Forecast
Issued by NWS Northern Indiana

Home | Current Version | Previous Version | Text Only | Print | Product List | Glossary Off
Versions: 1 2 3 4 5 6 7 8 9 10 11 12 13 14 15 16 17 18

000
FTUS43 KIWX 242320
TAFFWA
TAF
KFWA 242320Z 2500/2524 09014KT 5SM BR OVC007
     FM250100 10014G20KT 3SM RA VCTS OVC007CB
     FM250500 14014G20KT 3SM RA OVC007 WS020/22045KT
     FM251000 25019G29KT P6SM BKN020
     FM251400 24017G27KT P6SM SCT030
     FM252300 24008KT P6SM SKC=

USA.gov is the U.S. government's official web portal to all federal, state and local government web resources and services.